Trenton, KY

9:44 PM CDT on May 27, 2017 (GMT -0500)
Cindy Jo Ct | | Change Station

Elev 522 ft 36.63 °N, 87.30 °W | Updated 35 seconds ago

Mostly Cloudy
Mostly Cloudy
63.2 °F
Feels Like 63.2 °F
N
2.0
Wind Variable Wind from NNE

Today
High -- | Low -- °F
--% Chance of Precip.
Yesterday
High -- | Low -- °F
Precip. -- in
Pressure 29.87 in
Visibility 10.0 miles
Clouds Clear
Dew Point 60 °F
Humidity 90%
Rainfall 0.91 in
Snow Depth Not available.
5:33 AM 7:59 PM
Waxing Crescent, 8% visible
METAR KHOP 280158Z AUTO 22007KT 10SM CLR 18/18 A2987 RMK AO2 LTG DSNT W RAE35DZB35E49 TSE17 SLP113 P0005 T01820182 $
Pressure 29.87 in
Visibility 10.0 miles
Clouds Clear
Dew Point 60 °F
Humidity 90%
Rainfall 0.91 in
Snow Depth Not available.
5:33 AM 7:59 PM
Waxing Crescent, 8% visible
METAR KHOP 280158Z AUTO 22007KT 10SM CLR 18/18 A2987 RMK AO2 LTG DSNT W RAE35DZB35E49 TSE17 SLP113 P0005 T01820182 $

Get Your Daily Forecast Email!

Thanks for signing up!

Be on the lookout for a verification email in your inbox.

You'll start receiving severe weather alerts in your inbox..

×

10-Day Weather Forecast

Almanac

Astronomy

May. 27, 2017 Rise Set
Actual Time
Civil Twilight
Nautical Twilight
Astronomical Twilight
Moon
Length of Visible Light
Length of Day
Tomorrow will be .
, % of the Moon is Illuminated

Today's Extremes

State Highs State Lows

Community

WunderPhotos

Category 6

Welcome to Category 6. This is the collective home for Weather Underground's featured writeups by Dr. Jeff Masters (right), Bob Henson (left), Chris Burt, and other regular contributors.

Nearby

Air Quality

  Air Quality AQ Index Pollutant
Not available.

Snow Depth

Station Depth Elevation

Earthquake Activity

City Distance Mag. Time & Date
Minimum magnitude displayed is 2.5.

Coastal Water Temperatures

Place Temperature

Stations

Nearby Weather Stations

Station Location Temp. Windchill Dew Point Humidity Wind Precip. Elev Updated Type
                   

Watches & Warnings

Severe Thunderstorm Watch
Issued: 9:24 PM CDT May. 27, 2017 – National Weather Service

Severe Thunderstorm Watch 280 remains in effect until 1200 am CDT

KY
. Kentucky counties included are

Allen Ballard Butler
Caldwell Calloway Carlisle
Christian Crittenden Fulton
Graves Hickman Hopkins
Livingston Logan Lyon
McCracken Marshall Muhlenberg
Ohio Simpson Todd
Trigg Warren